createdAt,value
2022-08-26T00:01:32.302Z,16.76
2022-08-26T00:04:01.808Z,16.73
2022-08-26T00:06:30.588Z,16.69
2022-08-26T00:08:58.934Z,16.65
2022-08-26T00:11:27.202Z,16.61
2022-08-26T00:13:56.552Z,16.57
2022-08-26T00:16:25.258Z,16.50
2022-08-26T00:18:52.812Z,16.43
2022-08-26T00:21:20.348Z,16.37
2022-08-26T00:23:47.599Z,16.31
2022-08-26T00:26:15.172Z,16.25
2022-08-26T00:28:42.443Z,16.18
2022-08-26T00:31:11.262Z,16.11
2022-08-26T00:33:39.471Z,16.03
2022-08-26T00:36:07.377Z,15.96
2022-08-26T00:38:38.301Z,15.90
2022-08-26T00:41:06.710Z,15.87
2022-08-26T00:43:47.398Z,15.82
2022-08-26T00:46:14.028Z,15.78
2022-08-26T00:48:44.532Z,15.75
2022-08-26T00:51:15.860Z,15.72
2022-08-26T00:53:49.084Z,15.69
2022-08-26T00:56:22.526Z,15.63
2022-08-26T00:58:50.514Z,15.60
2022-08-26T01:01:18.151Z,15.57
2022-08-26T01:03:46.156Z,15.54
2022-08-26T01:06:13.937Z,15.52
2022-08-26T01:08:41.349Z,15.50
2022-08-26T01:11:09.221Z,15.48
2022-08-26T01:13:37.959Z,15.47
2022-08-26T01:16:07.781Z,15.43
2022-08-26T01:18:35.486Z,15.41
2022-08-26T01:21:23.025Z,15.40
2022-08-26T01:23:57.423Z,15.36
2022-08-26T01:26:25.943Z,15.31
2022-08-26T01:28:54.977Z,15.26
2022-08-26T01:31:25.292Z,15.21
2022-08-26T01:34:05.237Z,15.16
2022-08-26T01:36:32.681Z,15.13
2022-08-26T01:38:59.856Z,15.10
2022-08-26T01:41:29.173Z,15.08
2022-08-26T01:43:56.807Z,15.06
2022-08-26T01:46:26.470Z,15.04
2022-08-26T01:48:55.108Z,15.01
2022-08-26T01:51:24.271Z,14.98
2022-08-26T01:53:51.611Z,14.97
2022-08-26T01:56:22.362Z,14.96
2022-08-26T01:58:52.702Z,14.93
2022-08-26T02:01:21.467Z,14.91
2022-08-26T02:03:57.960Z,14.90
2022-08-26T02:06:26.583Z,14.89
2022-08-26T02:08:56.433Z,14.86
2022-08-26T02:11:23.763Z,14.83
2022-08-26T02:13:54.776Z,14.80
2022-08-26T02:16:24.586Z,14.79
2022-08-26T02:18:54.258Z,14.78
2022-08-26T02:21:22.311Z,14.75
2022-08-26T02:23:51.865Z,14.75
2022-08-26T02:26:22.035Z,14.73
2022-08-26T02:28:55.559Z,14.72
2022-08-26T02:31:23.673Z,14.70
2022-08-26T02:33:51.051Z,14.69
2022-08-26T02:36:24.496Z,14.68
2022-08-26T02:38:53.692Z,14.68
2022-08-26T02:41:23.119Z,14.67
2022-08-26T02:43:50.368Z,14.67
2022-08-26T02:46:27.619Z,14.69
2022-08-26T02:48:47.250Z,14.68
2022-08-26T02:51:14.550Z,14.68
2022-08-26T02:53:42.057Z,14.66
2022-08-26T02:56:10.641Z,14.67
2022-08-26T02:58:38.005Z,14.66
2022-08-26T03:01:05.616Z,14.67
2022-08-26T03:03:34.142Z,14.67
2022-08-26T03:06:01.398Z,14.67
2022-08-26T03:08:28.655Z,14.70
2022-08-26T03:10:55.827Z,14.70
2022-08-26T03:13:23.191Z,14.70
2022-08-26T03:15:50.422Z,14.68
2022-08-26T03:18:17.629Z,14.66
2022-08-26T03:20:44.870Z,14.64
2022-08-26T03:23:12.341Z,14.60
2022-08-26T03:25:39.612Z,14.53
2022-08-26T03:28:06.744Z,14.51
2022-08-26T03:30:44.736Z,14.47
2022-08-26T03:33:11.719Z,14.43
2022-08-26T03:35:41.168Z,14.38
2022-08-26T03:38:09.066Z,14.31
2022-08-26T03:40:37.067Z,14.25
2022-08-26T03:43:05.934Z,14.20
2022-08-26T03:45:33.690Z,14.18
2022-08-26T03:48:01.156Z,14.17
2022-08-26T03:50:30.517Z,14.18
2022-08-26T03:52:59.699Z,14.20
2022-08-26T03:55:31.454Z,14.26
2022-08-26T03:57:59.624Z,14.31
2022-08-26T04:00:27.053Z,14.39
2022-08-26T04:02:54.398Z,14.50
2022-08-26T04:05:22.857Z,14.80
2022-08-26T04:07:50.992Z,15.31
2022-08-26T04:10:20.827Z,15.88
2022-08-26T04:12:48.056Z,16.49
2022-08-26T04:15:16.346Z,17.08
2022-08-26T04:17:45.293Z,17.62
2022-08-26T04:20:13.457Z,18.25
2022-08-26T04:22:42.731Z,18.84
2022-08-26T04:25:11.339Z,19.36
2022-08-26T04:27:38.748Z,19.89
2022-08-26T04:30:08.832Z,20.35
2022-08-26T04:32:36.484Z,20.78
2022-08-26T04:35:04.703Z,21.21
2022-08-26T04:37:33.539Z,21.59
2022-08-26T04:40:01.000Z,22.04
2022-08-26T04:42:29.309Z,22.46
2022-08-26T04:44:56.468Z,22.68
2022-08-26T04:47:24.160Z,22.85
2022-08-26T04:49:56.999Z,23.31
2022-08-26T04:52:24.793Z,23.70
2022-08-26T04:54:52.717Z,24.07
2022-08-26T04:57:19.984Z,24.38
2022-08-26T04:59:47.694Z,24.63
2022-08-26T05:02:17.865Z,25.00
2022-08-26T05:04:47.049Z,25.32
2022-08-26T05:07:15.288Z,25.64
2022-08-26T05:09:46.331Z,26.03
2022-08-26T05:12:13.708Z,26.34
2022-08-26T05:14:44.091Z,26.59
2022-08-26T05:17:14.813Z,26.80
2022-08-26T05:19:42.937Z,27.00
2022-08-26T05:22:10.345Z,27.16
2022-08-26T05:24:40.542Z,27.19
2022-08-26T05:27:11.707Z,27.13
2022-08-26T05:29:37.028Z,27.15
2022-08-26T05:32:05.048Z,27.19
2022-08-26T05:34:32.458Z,27.02
2022-08-26T05:36:59.747Z,26.80
2022-08-26T05:39:27.230Z,26.37
2022-08-26T05:41:54.547Z,26.08
2022-08-26T05:44:22.430Z,26.05
2022-08-26T05:46:49.782Z,25.98
2022-08-26T05:49:18.604Z,25.87
2022-08-26T05:51:46.599Z,25.73
2022-08-26T05:54:21.973Z,25.61
2022-08-26T05:56:48.671Z,25.71
2022-08-26T05:59:15.861Z,25.63
2022-08-26T06:01:45.115Z,25.69
2022-08-26T06:04:13.872Z,25.90
2022-08-26T06:06:46.039Z,26.09
2022-08-26T06:09:14.145Z,26.23
2022-08-26T06:11:43.281Z,26.22
2022-08-26T06:14:11.176Z,26.31
2022-08-26T06:16:43.001Z,26.22
2022-08-26T06:19:14.786Z,26.23
2022-08-26T06:21:47.979Z,26.42
2022-08-26T06:24:35.764Z,26.49
2022-08-26T06:27:07.708Z,26.49
2022-08-26T06:29:38.920Z,26.70
2022-08-26T06:32:06.385Z,27.12
2022-08-26T06:34:34.253Z,27.33
2022-08-26T06:37:02.433Z,27.31
2022-08-26T06:39:31.645Z,27.33
2022-08-26T06:41:59.757Z,27.58
2022-08-26T06:44:27.453Z,27.75
2022-08-26T06:46:57.419Z,27.86
2022-08-26T06:49:27.137Z,27.99
2022-08-26T06:51:57.317Z,28.23
2022-08-26T06:54:26.830Z,28.38
2022-08-26T06:56:56.089Z,28.45
2022-08-26T06:59:23.637Z,28.42
2022-08-26T07:01:51.726Z,28.47
2022-08-26T07:04:22.354Z,28.29
2022-08-26T07:06:52.325Z,28.13
2022-08-26T07:09:21.993Z,28.14
2022-08-26T07:11:50.726Z,28.18
2022-08-26T07:14:21.304Z,28.21
2022-08-26T07:16:49.006Z,28.36
2022-08-26T07:19:28.486Z,28.46
2022-08-26T07:21:48.065Z,28.77
2022-08-26T07:24:16.875Z,29.00
2022-08-26T07:26:44.875Z,29.36
2022-08-26T07:29:12.891Z,29.63
2022-08-26T07:31:42.409Z,29.87
2022-08-26T07:34:13.285Z,30.05
2022-08-26T07:36:41.468Z,30.01
2022-08-26T07:39:09.208Z,29.94
2022-08-26T07:41:36.900Z,30.03
2022-08-26T07:44:05.655Z,30.19
2022-08-26T07:46:34.820Z,30.12
2022-08-26T07:49:04.108Z,30.14
2022-08-26T07:51:32.078Z,30.28
2022-08-26T07:54:10.712Z,30.54
2022-08-26T07:56:39.767Z,30.78
2022-08-26T07:59:14.052Z,30.81
2022-08-26T08:01:39.883Z,30.84
2022-08-26T08:04:07.566Z,30.95
2022-08-26T08:06:38.090Z,31.05
2022-08-26T08:09:05.350Z,31.17
2022-08-26T08:11:34.129Z,31.32
2022-08-26T08:14:02.863Z,31.50
2022-08-26T08:16:33.449Z,31.66
2022-08-26T08:19:01.670Z,31.60
2022-08-26T08:21:30.595Z,31.90
2022-08-26T08:23:59.269Z,32.25
2022-08-26T08:26:26.765Z,32.47
2022-08-26T08:28:55.718Z,32.60
2022-08-26T08:31:54.497Z,32.69
2022-08-26T08:33:57.627Z,32.61
2022-08-26T08:36:25.285Z,32.70
2022-08-26T08:38:54.458Z,32.78
2022-08-26T08:41:56.015Z,32.93
2022-08-26T08:44:28.553Z,33.14
2022-08-26T08:47:09.141Z,33.29
2022-08-26T08:49:45.386Z,33.37
2022-08-26T08:52:29.747Z,33.21
2022-08-26T08:55:00.505Z,33.16
2022-08-26T08:57:46.609Z,33.18
2022-08-26T09:00:17.415Z,32.91
2022-08-26T09:02:48.787Z,32.71
2022-08-26T09:05:23.135Z,32.75
2022-08-26T09:08:11.246Z,32.95
2022-08-26T09:10:41.186Z,32.83
2022-08-26T09:13:16.916Z,32.43
2022-08-26T09:16:03.386Z,32.23
2022-08-26T09:18:53.957Z,32.12
2022-08-26T09:21:29.439Z,32.27
2022-08-26T09:24:11.298Z,32.47
2022-08-26T09:26:42.616Z,32.35
2022-08-26T09:29:24.310Z,32.24
2022-08-26T09:31:56.698Z,32.14
2022-08-26T09:34:27.973Z,32.27
2022-08-26T09:36:57.888Z,32.42
2022-08-26T09:39:40.387Z,32.72
2022-08-26T09:42:19.539Z,32.94
2022-08-26T09:44:58.961Z,33.11
2022-08-26T09:47:48.031Z,33.15
2022-08-26T09:50:37.225Z,33.14
2022-08-26T09:53:15.250Z,32.83
2022-08-26T09:55:44.933Z,32.63
2022-08-26T09:58:15.123Z,32.67
2022-08-26T10:00:57.397Z,32.88
2022-08-26T10:03:28.343Z,33.06
2022-08-26T10:06:04.357Z,33.18
2022-08-26T10:08:34.434Z,33.43
2022-08-26T10:11:05.307Z,33.67
2022-08-26T10:13:41.779Z,33.80
2022-08-26T10:16:13.117Z,33.82
2022-08-26T10:18:56.841Z,33.78
2022-08-26T10:21:35.495Z,33.83
2022-08-26T10:24:04.591Z,33.79
2022-08-26T10:26:47.966Z,34.02
2022-08-26T10:29:25.924Z,34.24
2022-08-26T10:31:58.745Z,34.44
2022-08-26T10:34:26.348Z,34.54
2022-08-26T10:37:15.041Z,34.60
2022-08-26T10:39:43.490Z,34.58
2022-08-26T10:42:23.180Z,34.55
2022-08-26T10:44:52.720Z,34.42
2022-08-26T10:47:26.177Z,34.41
2022-08-26T10:49:57.536Z,34.51
2022-08-26T10:52:35.581Z,34.40
2022-08-26T10:55:06.749Z,34.29
2022-08-26T10:57:45.173Z,34.28
2022-08-26T11:00:40.703Z,34.24
2022-08-26T11:03:41.093Z,34.22
2022-08-26T11:06:22.577Z,34.18
2022-08-26T11:08:53.295Z,34.23
2022-08-26T11:11:42.255Z,34.18
2022-08-26T11:14:12.753Z,34.23
2022-08-26T11:16:48.165Z,34.39
2022-08-26T11:19:59.576Z,34.34
2022-08-26T11:22:27.579Z,34.24
2022-08-26T11:25:02.445Z,34.04
2022-08-26T11:27:44.168Z,33.94
2022-08-26T11:30:30.485Z,33.76
2022-08-26T11:33:11.270Z,33.51
2022-08-26T11:35:44.409Z,33.61
2022-08-26T11:38:26.011Z,33.83
2022-08-26T11:41:11.544Z,34.06
2022-08-26T11:43:49.803Z,34.17
2022-08-26T11:46:33.848Z,34.15
2022-08-26T11:49:08.932Z,34.25
2022-08-26T11:51:48.158Z,34.38
2022-08-26T11:57:15.625Z,34.35
2022-08-26T11:59:47.803Z,34.25
2022-08-26T12:02:20.562Z,34.14
2022-08-26T12:04:55.869Z,33.94
2022-08-26T12:07:29.526Z,33.87
2022-08-26T12:10:06.566Z,33.91
2022-08-26T12:12:39.261Z,33.84
2022-08-26T12:15:20.054Z,33.80
2022-08-26T12:17:54.536Z,33.64
2022-08-26T12:20:50.737Z,33.53
2022-08-26T12:23:38.093Z,33.43
2022-08-26T12:26:28.974Z,33.33
2022-08-26T12:29:09.981Z,33.25
2022-08-26T12:31:41.265Z,32.73
2022-08-26T12:34:18.045Z,32.65
2022-08-26T12:36:52.909Z,32.65
2022-08-26T12:39:31.913Z,32.67
2022-08-26T12:42:02.370Z,32.68
2022-08-26T12:44:36.628Z,32.64
2022-08-26T12:47:32.711Z,32.70
2022-08-26T12:50:10.232Z,32.70
2022-08-26T12:53:03.452Z,32.75
2022-08-26T12:55:49.976Z,32.56
2022-08-26T12:58:32.138Z,32.41
2022-08-26T13:01:09.062Z,32.47
2022-08-26T13:03:42.141Z,32.58
2022-08-26T13:06:27.397Z,32.67
2022-08-26T13:09:10.499Z,32.74
2022-08-26T13:11:44.892Z,32.80
2022-08-26T13:14:21.234Z,32.82
2022-08-26T13:16:46.415Z,32.82
2022-08-26T13:19:17.196Z,32.79
2022-08-26T13:21:49.615Z,32.76
2022-08-26T13:24:35.582Z,32.82
2022-08-26T13:27:04.881Z,32.81
2022-08-26T13:29:32.311Z,32.74
2022-08-26T13:32:00.368Z,32.75
2022-08-26T13:34:29.654Z,32.76
2022-08-26T13:36:57.722Z,32.66
2022-08-26T13:39:25.826Z,32.57
2022-08-26T13:41:53.277Z,32.56
2022-08-26T13:44:21.014Z,32.58
2022-08-26T13:46:48.541Z,32.62
2022-08-26T13:49:16.310Z,32.65
2022-08-26T13:51:47.221Z,32.63
2022-08-26T13:54:14.432Z,32.62
2022-08-26T13:56:42.786Z,32.63
2022-08-26T13:59:12.158Z,32.60
2022-08-26T14:01:40.191Z,32.55
2022-08-26T14:04:08.150Z,32.54
2022-08-26T14:06:35.620Z,32.39
2022-08-26T14:09:03.186Z,32.31
2022-08-26T14:11:39.075Z,32.25
2022-08-26T14:13:59.795Z,32.19
2022-08-26T14:16:31.039Z,32.17
2022-08-26T14:19:00.763Z,32.10
2022-08-26T14:21:33.930Z,32.10
2022-08-26T14:24:01.625Z,32.10
2022-08-26T14:26:29.967Z,32.11
2022-08-26T14:28:59.212Z,32.05
2022-08-26T14:31:28.595Z,32.04
2022-08-26T14:33:58.095Z,32.05
2022-08-26T14:36:28.284Z,32.01
2022-08-26T14:38:57.663Z,31.97
2022-08-26T14:41:25.848Z,31.88
2022-08-26T14:44:01.907Z,31.83
2022-08-26T14:46:31.175Z,31.80
2022-08-26T14:49:01.579Z,31.71
2022-08-26T14:51:29.074Z,31.66
2022-08-26T14:54:11.576Z,31.64
2022-08-26T14:56:54.836Z,31.61
2022-08-26T14:59:25.618Z,31.52
2022-08-26T15:01:54.201Z,31.40
2022-08-26T15:04:22.484Z,31.22
2022-08-26T15:06:51.310Z,31.11
2022-08-26T15:09:18.833Z,31.02
2022-08-26T15:11:47.763Z,30.95
2022-08-26T15:14:19.460Z,30.84
2022-08-26T15:16:46.278Z,30.80
2022-08-26T15:19:14.865Z,30.70
2022-08-26T15:21:42.755Z,30.63
2022-08-26T15:24:10.365Z,30.56
2022-08-26T15:26:37.945Z,30.50
2022-08-26T15:29:05.454Z,30.46
2022-08-26T15:31:33.427Z,30.45
2022-08-26T15:34:03.730Z,30.40
2022-08-26T15:36:32.446Z,30.37
2022-08-26T15:39:00.322Z,30.31
2022-08-26T15:41:30.586Z,30.29
2022-08-26T15:44:00.996Z,30.25
2022-08-26T15:46:31.549Z,30.18
2022-08-26T15:48:59.438Z,30.12
2022-08-26T15:51:32.819Z,30.06
2022-08-26T15:54:02.491Z,30.01
2022-08-26T15:56:34.106Z,29.94
2022-08-26T15:59:10.711Z,29.89
2022-08-26T16:01:38.177Z,29.82
2022-08-26T16:04:06.012Z,29.75
2022-08-26T16:06:36.090Z,29.66
2022-08-26T16:09:05.446Z,29.60
2022-08-26T16:11:35.639Z,29.48
2022-08-26T16:14:04.137Z,29.42
2022-08-26T16:16:31.623Z,29.30
2022-08-26T16:19:00.513Z,29.24
2022-08-26T16:21:28.472Z,29.18
2022-08-26T16:23:57.090Z,29.11
2022-08-26T16:26:28.217Z,29.06
2022-08-26T16:28:55.652Z,28.94
2022-08-26T16:31:23.450Z,28.86
2022-08-26T16:33:50.842Z,28.77
2022-08-26T16:36:19.373Z,28.66
2022-08-26T16:38:49.651Z,28.56
2022-08-26T16:41:17.351Z,28.46
2022-08-26T16:43:45.025Z,28.36
2022-08-26T16:46:13.618Z,28.25
2022-08-26T16:48:42.745Z,28.17
2022-08-26T16:51:12.353Z,28.04
2022-08-26T16:53:39.958Z,27.92
2022-08-26T16:56:16.409Z,27.80
2022-08-26T16:58:43.905Z,27.71
2022-08-26T17:01:11.590Z,27.62
2022-08-26T17:03:40.640Z,27.53
2022-08-26T17:06:08.949Z,27.45
2022-08-26T17:08:43.385Z,27.35
2022-08-26T17:11:15.118Z,27.24
2022-08-26T17:13:43.181Z,27.07
2022-08-26T17:16:16.291Z,26.84
2022-08-26T17:18:49.638Z,26.66
2022-08-26T17:21:16.928Z,26.48
2022-08-26T17:23:44.599Z,26.34
2022-08-26T17:26:12.468Z,26.25
2022-08-26T17:28:40.066Z,26.16
2022-08-26T17:31:09.092Z,26.06
2022-08-26T17:33:37.168Z,25.94
2022-08-26T17:36:07.343Z,25.83
2022-08-26T17:38:35.663Z,25.68
2022-08-26T17:41:09.194Z,25.56
2022-08-26T17:43:37.951Z,25.44
2022-08-26T17:46:07.741Z,25.32
2022-08-26T17:48:36.419Z,25.19
2022-08-26T17:51:16.324Z,25.03
2022-08-26T17:53:47.465Z,24.85
2022-08-26T17:56:17.515Z,24.70
2022-08-26T17:58:51.166Z,24.56
2022-08-26T18:01:16.447Z,24.42
2022-08-26T18:03:43.968Z,24.27
2022-08-26T18:06:18.210Z,24.13
2022-08-26T18:08:47.741Z,23.97
2022-08-26T18:11:18.168Z,23.80
2022-08-26T18:13:47.576Z,23.64
2022-08-26T18:16:23.331Z,23.52
2022-08-26T18:18:57.168Z,23.41
2022-08-26T18:21:28.382Z,23.30
2022-08-26T18:24:03.382Z,23.23
2022-08-26T18:26:46.977Z,23.17
2022-08-26T18:29:30.531Z,23.10
2022-08-26T18:32:06.346Z,23.03
2022-08-26T18:34:44.301Z,22.98
2022-08-26T18:37:35.511Z,22.91
2022-08-26T18:40:11.116Z,22.83
2022-08-26T18:42:41.034Z,22.73
2022-08-26T18:45:09.965Z,22.65
2022-08-26T18:47:39.602Z,22.57
2022-08-26T18:50:08.578Z,22.49
2022-08-26T18:52:37.958Z,22.44
2022-08-26T18:55:06.363Z,22.37
2022-08-26T18:57:34.075Z,22.30
2022-08-26T19:00:05.210Z,22.24
2022-08-26T19:02:33.691Z,22.19
2022-08-26T19:05:09.740Z,22.11
2022-08-26T19:07:48.596Z,22.03
2022-08-26T19:10:20.485Z,21.94
2022-08-26T19:12:53.814Z,21.88
2022-08-26T19:15:24.301Z,21.81
2022-08-26T19:18:00.032Z,21.77
2022-08-26T19:20:43.559Z,21.71
2022-08-26T19:23:30.527Z,21.65
2022-08-26T19:25:54.116Z,21.60
2022-08-26T19:28:26.557Z,21.56
2022-08-26T19:30:56.600Z,21.54
2022-08-26T19:33:28.341Z,21.49
2022-08-26T19:35:58.508Z,21.44
2022-08-26T19:38:27.778Z,21.36
2022-08-26T19:40:55.757Z,21.27
2022-08-26T19:43:24.547Z,21.15
2022-08-26T19:45:53.601Z,21.06
2022-08-26T19:48:21.684Z,21.01
2022-08-26T19:50:49.959Z,20.95
2022-08-26T19:53:19.368Z,20.90
2022-08-26T19:55:47.909Z,20.85
2022-08-26T19:58:16.110Z,20.80
2022-08-26T20:00:57.802Z,20.77
2022-08-26T20:03:27.125Z,20.67
2022-08-26T20:05:55.688Z,20.63
2022-08-26T20:08:25.476Z,20.60
2022-08-26T20:10:53.811Z,20.55
2022-08-26T20:13:22.818Z,20.53
2022-08-26T20:15:50.383Z,20.50
2022-08-26T20:18:36.110Z,20.49
2022-08-26T20:21:21.899Z,20.47
2022-08-26T20:23:50.872Z,20.42
2022-08-26T20:26:18.577Z,20.37
2022-08-26T20:28:45.862Z,20.33
2022-08-26T20:31:16.045Z,20.31
2022-08-26T20:33:46.282Z,20.29
2022-08-26T20:36:13.636Z,20.25
2022-08-26T20:38:42.972Z,20.20
2022-08-26T20:41:11.098Z,20.16
2022-08-26T20:43:38.698Z,20.10
2022-08-26T20:46:18.203Z,20.05
2022-08-26T20:48:35.727Z,20.00
2022-08-26T20:51:03.634Z,19.97
2022-08-26T20:53:31.650Z,19.92
2022-08-26T20:56:00.654Z,19.88
2022-08-26T20:58:28.545Z,19.84
2022-08-26T21:00:56.582Z,19.81
2022-08-26T21:03:27.468Z,19.78
2022-08-26T21:05:54.897Z,19.74
2022-08-26T21:08:22.337Z,19.68
2022-08-26T21:10:50.724Z,19.64
2022-08-26T21:13:19.923Z,19.61
2022-08-26T21:15:47.419Z,19.58
2022-08-26T21:18:15.057Z,19.56
2022-08-26T21:20:42.533Z,19.54
2022-08-26T21:23:10.156Z,19.53
2022-08-26T21:25:37.710Z,19.50
2022-08-26T21:28:05.033Z,19.47
2022-08-26T21:30:33.652Z,19.45
2022-08-26T21:33:04.232Z,19.41
2022-08-26T21:35:33.657Z,19.38
2022-08-26T21:38:01.227Z,19.35
2022-08-26T21:40:28.949Z,19.34
2022-08-26T21:42:56.541Z,19.30
2022-08-26T21:45:23.861Z,19.27
2022-08-26T21:47:51.322Z,19.24
2022-08-26T21:50:19.065Z,19.18
2022-08-26T21:52:46.863Z,19.10
2022-08-26T21:55:14.330Z,19.05
2022-08-26T21:57:41.860Z,18.98
2022-08-26T22:00:11.931Z,18.90
2022-08-26T22:02:39.353Z,18.81
2022-08-26T22:05:07.227Z,18.69
2022-08-26T22:07:34.713Z,18.58
2022-08-26T22:10:02.106Z,18.51
2022-08-26T22:12:29.567Z,18.41
2022-08-26T22:14:57.014Z,18.35
2022-08-26T22:17:24.561Z,18.29
2022-08-26T22:19:52.352Z,18.19
2022-08-26T22:22:19.760Z,18.09
2022-08-26T22:24:47.553Z,18.01
2022-08-26T22:27:15.013Z,17.96
2022-08-26T22:29:42.296Z,17.86
2022-08-26T22:32:09.953Z,17.80
2022-08-26T22:34:37.296Z,17.77
2022-08-26T22:37:05.082Z,17.73
2022-08-26T22:39:33.358Z,17.72
2022-08-26T22:42:00.547Z,17.72
2022-08-26T22:44:28.091Z,17.74
2022-08-26T22:46:55.533Z,17.74
2022-08-26T22:49:23.713Z,17.73
2022-08-26T22:51:51.090Z,17.73
2022-08-26T22:54:18.813Z,17.72
2022-08-26T22:56:46.122Z,17.71
2022-08-26T22:59:15.492Z,17.69
2022-08-26T23:01:43.467Z,17.69
2022-08-26T23:04:10.947Z,17.69
2022-08-26T23:06:41.246Z,17.70
2022-08-26T23:09:09.579Z,17.70
2022-08-26T23:11:39.187Z,17.69
2022-08-26T23:14:08.507Z,17.68
2022-08-26T23:16:39.269Z,17.67
2022-08-26T23:19:08.283Z,17.68
2022-08-26T23:21:35.642Z,17.69
2022-08-26T23:24:03.694Z,17.70
2022-08-26T23:26:31.353Z,17.71
2022-08-26T23:28:59.180Z,17.72
2022-08-26T23:31:26.719Z,17.74
2022-08-26T23:34:12.883Z,17.73
2022-08-26T23:36:42.715Z,17.74
2022-08-26T23:39:12.843Z,17.75
2022-08-26T23:41:40.164Z,17.74
2022-08-26T23:44:07.591Z,17.76
2022-08-26T23:46:35.374Z,17.77
2022-08-26T23:49:03.551Z,17.76
2022-08-26T23:51:49.930Z,17.75
2022-08-26T23:54:17.419Z,17.74
2022-08-26T23:56:44.990Z,17.70
2022-08-26T23:59:12.469Z,17.67
